Terminal Aerodrome Forecast
Issued by NWS Blacksburg, VA

Home | Current Version | Previous Version | Text Only | Print | Product List | Glossary On
Versions: 1 2 3 4 5 6 7 8 9 10 11 12 13 14 15
000
FTUS41 KRNK 250540
TAFLYH
TAF
KLYH 250540Z 2506/2606 02017G27KT 6SM -RA BKN005 OVC008
      TEMPO 2508/2512 4SM RA SCT003 OVC009
     FM251400 03015G23KT 5SM -RA OVC008
     FM251800 03009KT 6SM -RA OVC010
     FM260300 02005KT P6SM OVC015=

USA.gov is the U.S. government's official web portal to all federal, state and local government web resources and services.